sensor_id;sensor_type;location;lat;lon;timestamp;temperature;humidity
34279;DHT22;20538;51.528;9.942;2023-03-14T00:01:58;10.60;99.90
34279;DHT22;20538;51.528;9.942;2023-03-14T00:04:24;10.60;99.90
34279;DHT22;20538;51.528;9.942;2023-03-14T00:06:50;10.60;99.90
34279;DHT22;20538;51.528;9.942;2023-03-14T00:09:16;10.60;99.90
34279;DHT22;20538;51.528;9.942;2023-03-14T00:11:42;10.50;99.90
34279;DHT22;20538;51.528;9.942;2023-03-14T00:14:08;10.50;99.90
34279;DHT22;20538;51.528;9.942;2023-03-14T00:16:33;10.70;99.90
34279;DHT22;20538;51.528;9.942;2023-03-14T00:18:59;10.70;99.90
34279;DHT22;20538;51.528;9.942;2023-03-14T00:21:26;10.60;99.90
34279;DHT22;20538;51.528;9.942;2023-03-14T00:23:52;10.60;99.90
34279;DHT22;20538;51.528;9.942;2023-03-14T00:26:19;10.60;99.90
34279;DHT22;20538;51.528;9.942;2023-03-14T00:28:46;10.60;99.90
34279;DHT22;20538;51.528;9.942;2023-03-14T00:31:14;10.50;99.90
34279;DHT22;20538;51.528;9.942;2023-03-14T00:33:40;10.50;99.90
34279;DHT22;20538;51.528;9.942;2023-03-14T00:36:09;10.50;99.90
34279;DHT22;20538;51.528;9.942;2023-03-14T00:38:35;10.60;99.90
34279;DHT22;20538;51.528;9.942;2023-03-14T00:41:09;10.60;99.90
34279;DHT22;20538;51.528;9.942;2023-03-14T00:43:36;10.60;99.90
34279;DHT22;20538;51.528;9.942;2023-03-14T00:46:02;10.60;99.90
34279;DHT22;20538;51.528;9.942;2023-03-14T00:48:35;10.70;99.90
34279;DHT22;20538;51.528;9.942;2023-03-14T00:51:01;10.80;99.90
34279;DHT22;20538;51.528;9.942;2023-03-14T00:53:27;10.80;99.90
34279;DHT22;20538;51.528;9.942;2023-03-14T00:55:52;10.90;99.90
34279;DHT22;20538;51.528;9.942;2023-03-14T00:58:18;10.90;99.90
34279;DHT22;20538;51.528;9.942;2023-03-14T01:00:45;10.90;99.90
34279;DHT22;20538;51.528;9.942;2023-03-14T01:03:12;10.90;99.90
34279;DHT22;20538;51.528;9.942;2023-03-14T01:05:38;10.80;99.90
34279;DHT22;20538;51.528;9.942;2023-03-14T01:08:04;10.80;99.90
34279;DHT22;20538;51.528;9.942;2023-03-14T01:10:30;10.80;99.90
34279;DHT22;20538;51.528;9.942;2023-03-14T01:12:56;10.80;99.90
34279;DHT22;20538;51.528;9.942;2023-03-14T01:15:22;10.80;99.90
34279;DHT22;20538;51.528;9.942;2023-03-14T01:17:47;10.80;99.90
34279;DHT22;20538;51.528;9.942;2023-03-14T01:20:15;10.80;99.90
34279;DHT22;20538;51.528;9.942;2023-03-14T01:22:41;10.80;99.90
34279;DHT22;20538;51.528;9.942;2023-03-14T01:25:09;10.70;99.90
34279;DHT22;20538;51.528;9.942;2023-03-14T01:27:35;10.70;99.90
34279;DHT22;20538;51.528;9.942;2023-03-14T01:30:01;10.70;99.90
34279;DHT22;20538;51.528;9.942;2023-03-14T01:32:30;10.70;99.90
34279;DHT22;20538;51.528;9.942;2023-03-14T01:34:56;10.60;99.90
34279;DHT22;20538;51.528;9.942;2023-03-14T01:37:21;10.60;99.90
34279;DHT22;20538;51.528;9.942;2023-03-14T01:39:48;10.50;99.90
34279;DHT22;20538;51.528;9.942;2023-03-14T01:42:14;10.50;99.90
34279;DHT22;20538;51.528;9.942;2023-03-14T01:44:52;10.40;99.90
34279;DHT22;20538;51.528;9.942;2023-03-14T01:47:18;10.50;99.90
34279;DHT22;20538;51.528;9.942;2023-03-14T01:49:47;10.50;99.90
34279;DHT22;20538;51.528;9.942;2023-03-14T01:52:21;10.50;99.90
34279;DHT22;20538;51.528;9.942;2023-03-14T01:54:51;10.40;99.90
34279;DHT22;20538;51.528;9.942;2023-03-14T02:02:37;10.40;99.90
34279;DHT22;20538;51.528;9.942;2023-03-14T02:05:05;10.40;99.90
34279;DHT22;20538;51.528;9.942;2023-03-14T02:10:04;10.30;99.90
34279;DHT22;20538;51.528;9.942;2023-03-14T02:12:30;10.30;99.90
34279;DHT22;20538;51.528;9.942;2023-03-14T02:14:56;10.30;99.90
34279;DHT22;20538;51.528;9.942;2023-03-14T02:17:22;10.30;99.90
34279;DHT22;20538;51.528;9.942;2023-03-14T02:22:17;10.40;99.90
34279;DHT22;20538;51.528;9.942;2023-03-14T02:24:58;10.50;99.90
34279;DHT22;20538;51.528;9.942;2023-03-14T02:27:25;10.50;99.90
34279;DHT22;20538;51.528;9.942;2023-03-14T02:30:10;10.60;99.90
34279;DHT22;20538;51.528;9.942;2023-03-14T02:32:38;10.50;99.90
34279;DHT22;20538;51.528;9.942;2023-03-14T02:35:09;10.60;99.90
34279;DHT22;20538;51.528;9.942;2023-03-14T02:37:41;10.50;99.90
34279;DHT22;20538;51.528;9.942;2023-03-14T02:40:09;10.50;99.90
34279;DHT22;20538;51.528;9.942;2023-03-14T02:42:35;10.50;99.90
34279;DHT22;20538;51.528;9.942;2023-03-14T02:47:38;10.50;99.90
34279;DHT22;20538;51.528;9.942;2023-03-14T02:50:12;10.40;99.90
34279;DHT22;20538;51.528;9.942;2023-03-14T02:52:38;10.50;99.90
34279;DHT22;20538;51.528;9.942;2023-03-14T02:55:05;10.40;99.90
34279;DHT22;20538;51.528;9.942;2023-03-14T02:57:30;10.40;99.90
34279;DHT22;20538;51.528;9.942;2023-03-14T03:00:00;10.40;99.90
34279;DHT22;20538;51.528;9.942;2023-03-14T03:02:26;10.50;99.90
34279;DHT22;20538;51.528;9.942;2023-03-14T03:04:52;10.50;99.90
34279;DHT22;20538;51.528;9.942;2023-03-14T03:07:18;10.50;99.90
34279;DHT22;20538;51.528;9.942;2023-03-14T03:09:44;10.50;99.90
34279;DHT22;20538;51.528;9.942;2023-03-14T03:12:10;10.50;99.90
34279;DHT22;20538;51.528;9.942;2023-03-14T03:14:36;10.50;99.90
34279;DHT22;20538;51.528;9.942;2023-03-14T03:17:03;10.50;99.90
34279;DHT22;20538;51.528;9.942;2023-03-14T03:19:30;10.50;99.90
34279;DHT22;20538;51.528;9.942;2023-03-14T03:21:55;10.50;99.90
34279;DHT22;20538;51.528;9.942;2023-03-14T03:24:21;10.50;99.90
34279;DHT22;20538;51.528;9.942;2023-03-14T03:26:47;10.50;99.90
34279;DHT22;20538;51.528;9.942;2023-03-14T03:29:12;10.50;99.90
34279;DHT22;20538;51.528;9.942;2023-03-14T03:31:39;10.40;99.90
34279;DHT22;20538;51.528;9.942;2023-03-14T03:34:04;10.30;99.90
34279;DHT22;20538;51.528;9.942;2023-03-14T03:36:30;10.30;99.90
34279;DHT22;20538;51.528;9.942;2023-03-14T03:38:55;10.30;99.90
34279;DHT22;20538;51.528;9.942;2023-03-14T03:41:21;10.30;99.90
34279;DHT22;20538;51.528;9.942;2023-03-14T03:43:47;10.20;99.90
34279;DHT22;20538;51.528;9.942;2023-03-14T03:46:12;10.10;99.90
34279;DHT22;20538;51.528;9.942;2023-03-14T03:48:38;10.10;99.90
34279;DHT22;20538;51.528;9.942;2023-03-14T03:51:04;10.10;99.90
34279;DHT22;20538;51.528;9.942;2023-03-14T03:53:29;10.20;99.90
34279;DHT22;20538;51.528;9.942;2023-03-14T03:55:55;10.20;99.90
34279;DHT22;20538;51.528;9.942;2023-03-14T03:58:20;10.20;99.90
34279;DHT22;20538;51.528;9.942;2023-03-14T04:00:46;10.30;99.90
34279;DHT22;20538;51.528;9.942;2023-03-14T04:03:12;10.30;99.90
34279;DHT22;20538;51.528;9.942;2023-03-14T04:05:37;10.30;99.90
34279;DHT22;20538;51.528;9.942;2023-03-14T04:08:04;10.30;99.90
34279;DHT22;20538;51.528;9.942;2023-03-14T04:10:30;10.30;99.90
34279;DHT22;20538;51.528;9.942;2023-03-14T04:12:58;10.50;99.90
34279;DHT22;20538;51.528;9.942;2023-03-14T04:15:24;10.40;99.90
34279;DHT22;20538;51.528;9.942;2023-03-14T04:17:50;10.50;99.90
34279;DHT22;20538;51.528;9.942;2023-03-14T04:20:15;10.50;99.90
34279;DHT22;20538;51.528;9.942;2023-03-14T04:22:41;10.50;99.90
34279;DHT22;20538;51.528;9.942;2023-03-14T04:25:07;10.50;99.90
34279;DHT22;20538;51.528;9.942;2023-03-14T04:27:33;10.50;99.90
34279;DHT22;20538;51.528;9.942;2023-03-14T04:29:58;10.50;99.90
34279;DHT22;20538;51.528;9.942;2023-03-14T04:32:24;10.40;99.90
34279;DHT22;20538;51.528;9.942;2023-03-14T04:34:49;10.40;99.90
34279;DHT22;20538;51.528;9.942;2023-03-14T04:37:15;10.40;99.90
34279;DHT22;20538;51.528;9.942;2023-03-14T04:39:41;10.40;99.90
34279;DHT22;20538;51.528;9.942;2023-03-14T04:42:06;10.30;99.90
34279;DHT22;20538;51.528;9.942;2023-03-14T04:44:32;10.20;99.90
34279;DHT22;20538;51.528;9.942;2023-03-14T04:46:58;10.10;99.90
34279;DHT22;20538;51.528;9.942;2023-03-14T04:49:23;10.00;99.90
34279;DHT22;20538;51.528;9.942;2023-03-14T04:51:49;10.00;99.90
34279;DHT22;20538;51.528;9.942;2023-03-14T04:54:17;9.90;99.90
34279;DHT22;20538;51.528;9.942;2023-03-14T04:56:42;9.90;99.90
34279;DHT22;20538;51.528;9.942;2023-03-14T04:59:08;9.90;99.90
34279;DHT22;20538;51.528;9.942;2023-03-14T05:01:34;9.80;99.90
34279;DHT22;20538;51.528;9.942;2023-03-14T05:04:00;9.80;99.90
34279;DHT22;20538;51.528;9.942;2023-03-14T05:06:26;9.80;99.90
34279;DHT22;20538;51.528;9.942;2023-03-14T05:08:51;9.80;99.90
34279;DHT22;20538;51.528;9.942;2023-03-14T05:11:17;9.70;99.90
34279;DHT22;20538;51.528;9.942;2023-03-14T05:13:43;9.70;99.90
34279;DHT22;20538;51.528;9.942;2023-03-14T05:16:10;9.70;99.90
34279;DHT22;20538;51.528;9.942;2023-03-14T05:18:37;9.70;99.90
34279;DHT22;20538;51.528;9.942;2023-03-14T05:21:03;9.70;99.90
34279;DHT22;20538;51.528;9.942;2023-03-14T05:23:29;9.70;99.90
34279;DHT22;20538;51.528;9.942;2023-03-14T05:25:56;9.70;99.90
34279;DHT22;20538;51.528;9.942;2023-03-14T05:28:21;9.70;99.90
34279;DHT22;20538;51.528;9.942;2023-03-14T05:30:47;9.80;99.90
34279;DHT22;20538;51.528;9.942;2023-03-14T05:33:12;9.90;99.90
34279;DHT22;20538;51.528;9.942;2023-03-14T05:35:38;9.90;99.90
34279;DHT22;20538;51.528;9.942;2023-03-14T05:38:04;9.90;99.90
34279;DHT22;20538;51.528;9.942;2023-03-14T05:40:30;9.90;99.90
34279;DHT22;20538;51.528;9.942;2023-03-14T05:42:55;9.90;99.90
34279;DHT22;20538;51.528;9.942;2023-03-14T05:45:21;9.90;99.90
34279;DHT22;20538;51.528;9.942;2023-03-14T05:47:46;9.90;99.90
34279;DHT22;20538;51.528;9.942;2023-03-14T05:50:12;9.90;99.90
34279;DHT22;20538;51.528;9.942;2023-03-14T05:52:38;9.90;99.90
34279;DHT22;20538;51.528;9.942;2023-03-14T05:55:04;9.90;99.90
34279;DHT22;20538;51.528;9.942;2023-03-14T05:57:30;10.00;99.90
34279;DHT22;20538;51.528;9.942;2023-03-14T05:59:55;10.00;99.90
34279;DHT22;20538;51.528;9.942;2023-03-14T06:02:21;10.00;99.90
34279;DHT22;20538;51.528;9.942;2023-03-14T06:04:46;10.00;99.90
34279;DHT22;20538;51.528;9.942;2023-03-14T06:07:12;10.00;99.90
34279;DHT22;20538;51.528;9.942;2023-03-14T06:09:38;10.00;99.90
34279;DHT22;20538;51.528;9.942;2023-03-14T06:12:05;10.00;99.90
34279;DHT22;20538;51.528;9.942;2023-03-14T06:14:31;10.00;99.90
34279;DHT22;20538;51.528;9.942;2023-03-14T06:16:57;10.00;99.90
34279;DHT22;20538;51.528;9.942;2023-03-14T06:19:25;10.10;99.90
34279;DHT22;20538;51.528;9.942;2023-03-14T06:21:51;10.10;99.90
34279;DHT22;20538;51.528;9.942;2023-03-14T06:24:17;10.20;99.90
34279;DHT22;20538;51.528;9.942;2023-03-14T06:26:42;10.20;99.90
34279;DHT22;20538;51.528;9.942;2023-03-14T06:29:08;10.30;99.90
34279;DHT22;20538;51.528;9.942;2023-03-14T06:31:34;10.20;99.90
34279;DHT22;20538;51.528;9.942;2023-03-14T06:34:00;10.20;99.90
34279;DHT22;20538;51.528;9.942;2023-03-14T06:36:25;10.20;99.90
34279;DHT22;20538;51.528;9.942;2023-03-14T06:38:51;10.20;99.90
34279;DHT22;20538;51.528;9.942;2023-03-14T06:41:17;10.20;99.90
34279;DHT22;20538;51.528;9.942;2023-03-14T06:43:42;10.30;99.90
34279;DHT22;20538;51.528;9.942;2023-03-14T06:46:08;10.40;99.90
34279;DHT22;20538;51.528;9.942;2023-03-14T06:48:34;10.40;99.90
34279;DHT22;20538;51.528;9.942;2023-03-14T06:50:59;10.50;99.90
34279;DHT22;20538;51.528;9.942;2023-03-14T06:53:25;10.60;99.90
34279;DHT22;20538;51.528;9.942;2023-03-14T06:55:51;10.60;99.90
34279;DHT22;20538;51.528;9.942;2023-03-14T06:58:16;10.70;99.90
34279;DHT22;20538;51.528;9.942;2023-03-14T07:00:42;10.70;99.90
34279;DHT22;20538;51.528;9.942;2023-03-14T07:03:08;10.80;99.90
34279;DHT22;20538;51.528;9.942;2023-03-14T07:05:35;10.80;99.90
34279;DHT22;20538;51.528;9.942;2023-03-14T07:08:00;10.80;99.90
34279;DHT22;20538;51.528;9.942;2023-03-14T07:10:26;10.80;99.90
34279;DHT22;20538;51.528;9.942;2023-03-14T07:12:51;10.80;99.90
34279;DHT22;20538;51.528;9.942;2023-03-14T07:15:19;10.80;99.90
34279;DHT22;20538;51.528;9.942;2023-03-14T07:17:45;10.80;99.90
34279;DHT22;20538;51.528;9.942;2023-03-14T07:20:11;10.80;99.90
34279;DHT22;20538;51.528;9.942;2023-03-14T07:22:36;10.90;99.90
34279;DHT22;20538;51.528;9.942;2023-03-14T07:25:05;10.90;99.90
34279;DHT22;20538;51.528;9.942;2023-03-14T07:27:31;10.90;99.90
34279;DHT22;20538;51.528;9.942;2023-03-14T07:29:56;10.90;99.90
34279;DHT22;20538;51.528;9.942;2023-03-14T07:32:22;11.00;99.90
34279;DHT22;20538;51.528;9.942;2023-03-14T07:34:48;11.00;99.90
34279;DHT22;20538;51.528;9.942;2023-03-14T07:37:14;11.00;99.90
34279;DHT22;20538;51.528;9.942;2023-03-14T07:39:39;11.00;99.90
34279;DHT22;20538;51.528;9.942;2023-03-14T07:42:05;11.00;99.90
34279;DHT22;20538;51.528;9.942;2023-03-14T07:44:31;11.00;99.90
34279;DHT22;20538;51.528;9.942;2023-03-14T07:46:56;11.10;99.90
34279;DHT22;20538;51.528;9.942;2023-03-14T07:49:22;11.00;99.90
34279;DHT22;20538;51.528;9.942;2023-03-14T07:51:48;11.00;99.90
34279;DHT22;20538;51.528;9.942;2023-03-14T07:54:14;11.00;99.90
34279;DHT22;20538;51.528;9.942;2023-03-14T07:56:40;11.00;99.90
34279;DHT22;20538;51.528;9.942;2023-03-14T07:59:06;11.00;99.90
34279;DHT22;20538;51.528;9.942;2023-03-14T08:01:32;11.00;99.90
34279;DHT22;20538;51.528;9.942;2023-03-14T08:03:58;11.00;99.90
34279;DHT22;20538;51.528;9.942;2023-03-14T08:06:23;11.10;99.90
34279;DHT22;20538;51.528;9.942;2023-03-14T08:08:49;11.20;99.90
34279;DHT22;20538;51.528;9.942;2023-03-14T08:11:14;11.20;99.90
34279;DHT22;20538;51.528;9.942;2023-03-14T08:13:40;11.20;99.90
34279;DHT22;20538;51.528;9.942;2023-03-14T08:16:06;11.30;99.90
34279;DHT22;20538;51.528;9.942;2023-03-14T08:18:32;11.40;99.90
34279;DHT22;20538;51.528;9.942;2023-03-14T08:20:58;11.50;99.90
34279;DHT22;20538;51.528;9.942;2023-03-14T08:23:24;11.50;99.90
34279;DHT22;20538;51.528;9.942;2023-03-14T08:25:50;11.50;99.90
34279;DHT22;20538;51.528;9.942;2023-03-14T08:28:16;11.50;99.90
34279;DHT22;20538;51.528;9.942;2023-03-14T08:30:42;11.60;99.90
34279;DHT22;20538;51.528;9.942;2023-03-14T08:33:08;11.50;99.90
34279;DHT22;20538;51.528;9.942;2023-03-14T08:35:33;11.60;99.90
34279;DHT22;20538;51.528;9.942;2023-03-14T08:37:59;11.60;99.90
34279;DHT22;20538;51.528;9.942;2023-03-14T08:40:25;11.50;99.90
34279;DHT22;20538;51.528;9.942;2023-03-14T08:42:50;11.50;99.90
34279;DHT22;20538;51.528;9.942;2023-03-14T08:45:16;11.50;99.90
34279;DHT22;20538;51.528;9.942;2023-03-14T08:47:43;11.50;99.90
34279;DHT22;20538;51.528;9.942;2023-03-14T08:50:10;11.40;99.90
34279;DHT22;20538;51.528;9.942;2023-03-14T08:52:35;11.40;99.90
34279;DHT22;20538;51.528;9.942;2023-03-14T08:55:03;11.40;99.90
34279;DHT22;20538;51.528;9.942;2023-03-14T08:57:29;11.50;99.90
34279;DHT22;20538;51.528;9.942;2023-03-14T08:59:55;11.50;99.90
34279;DHT22;20538;51.528;9.942;2023-03-14T09:02:22;11.60;99.90
34279;DHT22;20538;51.528;9.942;2023-03-14T09:04:49;11.60;99.90
34279;DHT22;20538;51.528;9.942;2023-03-14T09:07:18;11.70;99.90
34279;DHT22;20538;51.528;9.942;2023-03-14T09:09:44;11.70;99.90
34279;DHT22;20538;51.528;9.942;2023-03-14T09:12:10;11.60;99.90
34279;DHT22;20538;51.528;9.942;2023-03-14T09:14:36;11.60;99.90
34279;DHT22;20538;51.528;9.942;2023-03-14T09:17:03;11.70;99.90
34279;DHT22;20538;51.528;9.942;2023-03-14T09:19:28;11.70;99.90
34279;DHT22;20538;51.528;9.942;2023-03-14T09:21:54;11.90;99.90
34279;DHT22;20538;51.528;9.942;2023-03-14T09:24:20;11.90;99.90
34279;DHT22;20538;51.528;9.942;2023-03-14T09:26:47;12.00;99.90
34279;DHT22;20538;51.528;9.942;2023-03-14T09:29:13;12.20;99.90
34279;DHT22;20538;51.528;9.942;2023-03-14T09:31:39;12.20;99.90
34279;DHT22;20538;51.528;9.942;2023-03-14T09:34:04;12.30;99.90
34279;DHT22;20538;51.528;9.942;2023-03-14T09:36:30;12.20;99.90
34279;DHT22;20538;51.528;9.942;2023-03-14T09:38:56;12.20;99.90
34279;DHT22;20538;51.528;9.942;2023-03-14T09:41:29;12.40;99.90
34279;DHT22;20538;51.528;9.942;2023-03-14T09:44:24;12.40;99.90
34279;DHT22;20538;51.528;9.942;2023-03-14T09:46:53;12.50;99.90
34279;DHT22;20538;51.528;9.942;2023-03-14T09:49:31;12.60;99.90
34279;DHT22;20538;51.528;9.942;2023-03-14T09:52:00;12.70;99.90
34279;DHT22;20538;51.528;9.942;2023-03-14T09:54:53;12.70;99.90
34279;DHT22;20538;51.528;9.942;2023-03-14T09:57:23;12.90;99.90
34279;DHT22;20538;51.528;9.942;2023-03-14T09:59:50;12.90;99.90
34279;DHT22;20538;51.528;9.942;2023-03-14T10:02:24;13.00;99.90
34279;DHT22;20538;51.528;9.942;2023-03-14T10:04:53;13.10;99.90
34279;DHT22;20538;51.528;9.942;2023-03-14T10:07:28;13.00;99.90
34279;DHT22;20538;51.528;9.942;2023-03-14T10:09:54;13.10;99.90
34279;DHT22;20538;51.528;9.942;2023-03-14T10:12:21;13.10;99.90
34279;DHT22;20538;51.528;9.942;2023-03-14T10:14:55;13.30;99.90
34279;DHT22;20538;51.528;9.942;2023-03-14T10:17:20;13.30;99.90
34279;DHT22;20538;51.528;9.942;2023-03-14T10:19:58;13.40;99.90
34279;DHT22;20538;51.528;9.942;2023-03-14T10:22:30;13.00;99.90
34279;DHT22;20538;51.528;9.942;2023-03-14T10:25:01;13.10;99.90
34279;DHT22;20538;51.528;9.942;2023-03-14T10:27:31;13.20;99.90
34279;DHT22;20538;51.528;9.942;2023-03-14T10:30:03;13.40;99.90
34279;DHT22;20538;51.528;9.942;2023-03-14T10:32:35;13.60;99.90
34279;DHT22;20538;51.528;9.942;2023-03-14T10:40:18;13.40;99.90
34279;DHT22;20538;51.528;9.942;2023-03-14T10:42:44;13.50;99.90
34279;DHT22;20538;51.528;9.942;2023-03-14T10:45:35;13.60;99.90
34279;DHT22;20538;51.528;9.942;2023-03-14T10:48:29;13.90;99.90
34279;DHT22;20538;51.528;9.942;2023-03-14T10:51:01;14.00;99.90
34279;DHT22;20538;51.528;9.942;2023-03-14T10:53:33;13.90;99.90
34279;DHT22;20538;51.528;9.942;2023-03-14T10:56:02;13.60;99.90
34279;DHT22;20538;51.528;9.942;2023-03-14T10:58:32;13.60;99.90
34279;DHT22;20538;51.528;9.942;2023-03-14T11:06:50;13.80;99.90
34279;DHT22;20538;51.528;9.942;2023-03-14T11:10:04;13.70;99.90
34279;DHT22;20538;51.528;9.942;2023-03-14T11:12:50;13.70;99.90
34279;DHT22;20538;51.528;9.942;2023-03-14T11:21:11;13.70;99.90
34279;DHT22;20538;51.528;9.942;2023-03-14T11:23:40;13.80;99.90
34279;DHT22;20538;51.528;9.942;2023-03-14T11:29:20;14.10;99.90
34279;DHT22;20538;51.528;9.942;2023-03-14T11:37:06;14.50;99.90
34279;DHT22;20538;51.528;9.942;2023-03-14T11:39:39;14.30;99.90
34279;DHT22;20538;51.528;9.942;2023-03-14T11:42:12;14.30;99.90
34279;DHT22;20538;51.528;9.942;2023-03-14T11:44:41;14.30;99.90
34279;DHT22;20538;51.528;9.942;2023-03-14T11:49:49;14.00;99.90
34279;DHT22;20538;51.528;9.942;2023-03-14T11:52:35;13.80;99.90
34279;DHT22;20538;51.528;9.942;2023-03-14T11:57:27;13.80;99.90
34279;DHT22;20538;51.528;9.942;2023-03-14T12:00:14;13.70;99.90
34279;DHT22;20538;51.528;9.942;2023-03-14T12:02:56;13.60;99.90
34279;DHT22;20538;51.528;9.942;2023-03-14T12:05:40;13.70;99.90
34279;DHT22;20538;51.528;9.942;2023-03-14T12:10:49;13.10;99.90
34279;DHT22;20538;51.528;9.942;2023-03-14T12:13:17;12.80;99.90
34279;DHT22;20538;51.528;9.942;2023-03-14T12:15:58;12.50;99.90
34279;DHT22;20538;51.528;9.942;2023-03-14T12:18:52;12.40;99.90
34279;DHT22;20538;51.528;9.942;2023-03-14T12:21:19;12.20;99.90
34279;DHT22;20538;51.528;9.942;2023-03-14T12:23:53;12.10;99.90
34279;DHT22;20538;51.528;9.942;2023-03-14T12:26:22;11.90;99.90
34279;DHT22;20538;51.528;9.942;2023-03-14T12:39:31;9.40;99.90
34279;DHT22;20538;51.528;9.942;2023-03-14T12:42:08;9.20;99.90
34279;DHT22;20538;51.528;9.942;2023-03-14T12:44:43;9.10;99.90
34279;DHT22;20538;51.528;9.942;2023-03-14T12:49:51;9.40;99.90
34279;DHT22;20538;51.528;9.942;2023-03-14T12:52:33;9.50;99.90
34279;DHT22;20538;51.528;9.942;2023-03-14T13:02:46;9.40;99.90
34279;DHT22;20538;51.528;9.942;2023-03-14T13:05:20;9.30;99.90
34279;DHT22;20538;51.528;9.942;2023-03-14T13:10:22;8.90;99.90
34279;DHT22;20538;51.528;9.942;2023-03-14T13:12:55;8.50;99.90
34279;DHT22;20538;51.528;9.942;2023-03-14T13:15:34;8.20;99.90
34279;DHT22;20538;51.528;9.942;2023-03-14T13:18:13;8.00;99.90
34279;DHT22;20538;51.528;9.942;2023-03-14T13:20:52;8.00;99.90
34279;DHT22;20538;51.528;9.942;2023-03-14T13:23:37;7.80;99.90
34279;DHT22;20538;51.528;9.942;2023-03-14T13:26:03;7.50;99.90
34279;DHT22;20538;51.528;9.942;2023-03-14T13:28:30;7.10;99.90
34279;DHT22;20538;51.528;9.942;2023-03-14T13:30:59;7.10;99.90
34279;DHT22;20538;51.528;9.942;2023-03-14T13:33:25;7.10;99.90
34279;DHT22;20538;51.528;9.942;2023-03-14T13:38:28;6.90;99.90
34279;DHT22;20538;51.528;9.942;2023-03-14T13:40:56;6.60;99.90
34279;DHT22;20538;51.528;9.942;2023-03-14T13:43:33;6.50;99.90
34279;DHT22;20538;51.528;9.942;2023-03-14T13:46:20;6.10;99.90
34279;DHT22;20538;51.528;9.942;2023-03-14T13:49:03;6.00;99.90
34279;DHT22;20538;51.528;9.942;2023-03-14T13:51:31;5.80;99.90
34279;DHT22;20538;51.528;9.942;2023-03-14T13:54:01;5.90;99.90
34279;DHT22;20538;51.528;9.942;2023-03-14T13:56:31;5.60;99.90
34279;DHT22;20538;51.528;9.942;2023-03-14T13:58:58;5.50;99.90
34279;DHT22;20538;51.528;9.942;2023-03-14T14:04:02;5.00;99.90
34279;DHT22;20538;51.528;9.942;2023-03-14T14:06:36;5.20;99.90
34279;DHT22;20538;51.528;9.942;2023-03-14T14:09:36;5.10;99.90
34279;DHT22;20538;51.528;9.942;2023-03-14T14:12:10;4.60;99.90
34279;DHT22;20538;51.528;9.942;2023-03-14T14:14:55;4.30;99.90
34279;DHT22;20538;51.528;9.942;2023-03-14T14:17:26;4.40;99.90
34279;DHT22;20538;51.528;9.942;2023-03-14T14:19:53;4.50;99.90
34279;DHT22;20538;51.528;9.942;2023-03-14T14:22:20;4.60;99.90
34279;DHT22;20538;51.528;9.942;2023-03-14T14:24:46;4.70;99.90
34279;DHT22;20538;51.528;9.942;2023-03-14T14:27:23;4.60;99.90
34279;DHT22;20538;51.528;9.942;2023-03-14T14:30:02;4.70;99.90
34279;DHT22;20538;51.528;9.942;2023-03-14T14:32:39;4.90;99.90
34279;DHT22;20538;51.528;9.942;2023-03-14T14:35:06;5.10;99.90
34279;DHT22;20538;51.528;9.942;2023-03-14T14:37:42;5.20;99.90
34279;DHT22;20538;51.528;9.942;2023-03-14T14:40:28;5.40;99.90
34279;DHT22;20538;51.528;9.942;2023-03-14T14:42:55;5.40;99.90
34279;DHT22;20538;51.528;9.942;2023-03-14T14:45:27;5.40;99.90
34279;DHT22;20538;51.528;9.942;2023-03-14T14:48:26;5.40;99.90
34279;DHT22;20538;51.528;9.942;2023-03-14T14:50:58;5.60;99.90
34279;DHT22;20538;51.528;9.942;2023-03-14T14:53:42;5.40;99.90
34279;DHT22;20538;51.528;9.942;2023-03-14T14:56:17;5.30;99.90
34279;DHT22;20538;51.528;9.942;2023-03-14T14:58:45;5.60;99.90
34279;DHT22;20538;51.528;9.942;2023-03-14T15:01:20;5.80;99.90
34279;DHT22;20538;51.528;9.942;2023-03-14T15:03:52;6.00;99.90
34279;DHT22;20538;51.528;9.942;2023-03-14T15:06:19;6.20;99.90
34279;DHT22;20538;51.528;9.942;2023-03-14T15:08:47;6.40;99.90
34279;DHT22;20538;51.528;9.942;2023-03-14T15:11:25;6.10;99.90
34279;DHT22;20538;51.528;9.942;2023-03-14T15:13:51;6.30;99.90
34279;DHT22;20538;51.528;9.942;2023-03-14T15:16:20;6.20;99.90
34279;DHT22;20538;51.528;9.942;2023-03-14T15:18:54;6.10;99.90
34279;DHT22;20538;51.528;9.942;2023-03-14T15:21:22;6.10;99.90
34279;DHT22;20538;51.528;9.942;2023-03-14T15:23:47;5.70;99.90
34279;DHT22;20538;51.528;9.942;2023-03-14T15:26:16;5.80;99.90
34279;DHT22;20538;51.528;9.942;2023-03-14T15:28:42;5.90;99.90
34279;DHT22;20538;51.528;9.942;2023-03-14T15:31:10;5.90;99.90
34279;DHT22;20538;51.528;9.942;2023-03-14T15:33:39;5.90;99.90
34279;DHT22;20538;51.528;9.942;2023-03-14T15:36:15;5.70;99.90
34279;DHT22;20538;51.528;9.942;2023-03-14T15:38:42;5.60;99.90
34279;DHT22;20538;51.528;9.942;2023-03-14T15:41:09;5.50;99.90
34279;DHT22;20538;51.528;9.942;2023-03-14T15:43:35;5.30;99.90
34279;DHT22;20538;51.528;9.942;2023-03-14T15:46:00;5.40;99.90
34279;DHT22;20538;51.528;9.942;2023-03-14T15:48:26;5.30;99.90
34279;DHT22;20538;51.528;9.942;2023-03-14T15:50:51;5.50;99.90
34279;DHT22;20538;51.528;9.942;2023-03-14T15:53:17;5.40;99.90
34279;DHT22;20538;51.528;9.942;2023-03-14T15:55:43;5.40;99.90
34279;DHT22;20538;51.528;9.942;2023-03-14T15:58:17;5.60;99.90
34279;DHT22;20538;51.528;9.942;2023-03-14T16:00:42;5.40;99.90
34279;DHT22;20538;51.528;9.942;2023-03-14T16:03:08;5.70;99.90
34279;DHT22;20538;51.528;9.942;2023-03-14T16:05:35;5.60;99.90
34279;DHT22;20538;51.528;9.942;2023-03-14T16:08:00;5.70;99.90
34279;DHT22;20538;51.528;9.942;2023-03-14T16:10:27;5.70;99.90
34279;DHT22;20538;51.528;9.942;2023-03-14T16:12:52;5.60;99.90
34279;DHT22;20538;51.528;9.942;2023-03-14T16:15:18;5.70;99.90
34279;DHT22;20538;51.528;9.942;2023-03-14T16:17:44;5.80;99.90
34279;DHT22;20538;51.528;9.942;2023-03-14T16:20:11;5.90;99.90
34279;DHT22;20538;51.528;9.942;2023-03-14T16:22:37;5.70;99.90
34279;DHT22;20538;51.528;9.942;2023-03-14T16:25:05;5.70;99.90
34279;DHT22;20538;51.528;9.942;2023-03-14T16:27:31;5.80;99.90
34279;DHT22;20538;51.528;9.942;2023-03-14T16:29:58;5.60;99.90
34279;DHT22;20538;51.528;9.942;2023-03-14T16:32:27;5.50;99.90
34279;DHT22;20538;51.528;9.942;2023-03-14T16:34:53;5.60;99.90
34279;DHT22;20538;51.528;9.942;2023-03-14T16:37:18;5.60;99.90
34279;DHT22;20538;51.528;9.942;2023-03-14T16:39:47;5.50;99.90
34279;DHT22;20538;51.528;9.942;2023-03-14T16:42:14;5.30;99.90
34279;DHT22;20538;51.528;9.942;2023-03-14T16:44:40;5.30;99.90
34279;DHT22;20538;51.528;9.942;2023-03-14T16:47:06;5.20;99.90
34279;DHT22;20538;51.528;9.942;2023-03-14T16:49:31;5.20;99.90
34279;DHT22;20538;51.528;9.942;2023-03-14T16:51:57;5.20;99.90
34279;DHT22;20538;51.528;9.942;2023-03-14T16:54:22;5.10;99.90
34279;DHT22;20538;51.528;9.942;2023-03-14T16:56:48;5.10;99.90
34279;DHT22;20538;51.528;9.942;2023-03-14T16:59:14;5.10;99.90